createdAt,value
2016-01-19T00:00:01.100Z,45.3
2016-01-19T00:01:01.149Z,45.21
2016-01-19T00:02:01.214Z,45.4
2016-01-19T00:03:01.264Z,45.5
2016-01-19T00:04:01.329Z,45.88
2016-01-19T00:05:01.378Z,45.68
2016-01-19T00:06:01.429Z,45.5
2016-01-19T00:07:01.494Z,46.45
2016-01-19T00:08:01.542Z,45.59
2016-01-19T00:09:01.608Z,46.36
2016-01-19T00:10:01.658Z,46.17
2016-01-19T00:11:01.708Z,46.07
2016-01-19T00:12:01.773Z,46.17
2016-01-19T00:13:01.823Z,46.17
2016-01-19T00:14:01.889Z,45.98
2016-01-19T00:15:01.938Z,45.98
2016-01-19T00:16:01.988Z,45.98
2016-01-19T00:17:02.053Z,45.98
2016-01-19T00:18:02.103Z,45.88
2016-01-19T00:19:02.153Z,45.98
2016-01-19T00:20:02.202Z,45.88
2016-01-19T00:21:02.267Z,46.65
2016-01-19T00:22:02.332Z,46.07
2016-01-19T00:23:02.413Z,46.07
2016-01-19T00:24:02.431Z,46.17
2016-01-19T00:25:02.497Z,46.07
2016-01-19T00:26:02.561Z,46.84
2016-01-19T00:27:02.595Z,46.07
2016-01-19T00:28:02.677Z,46.17
2016-01-19T00:29:02.711Z,46.26
2016-01-19T00:30:02.760Z,46.17
2016-01-19T00:31:02.825Z,46.07
2016-01-19T00:32:02.874Z,45.98
2016-01-19T00:33:02.940Z,46.55
2016-01-19T00:34:03.036Z,46.07
2016-01-19T00:35:03.039Z,46.36
2016-01-19T00:36:03.105Z,46.36
2016-01-19T00:37:03.154Z,46.65
2016-01-19T00:38:03.204Z,46.36
2016-01-19T00:39:03.252Z,47.03
2016-01-19T00:40:03.318Z,46.45
2016-01-19T00:41:03.400Z,46.55
2016-01-19T00:42:03.434Z,46.84
2016-01-19T00:43:03.484Z,46.45
2016-01-19T00:44:03.550Z,47.32
2016-01-19T00:45:03.597Z,47.13
2016-01-19T00:46:03.647Z,47.13
2016-01-19T00:47:03.728Z,46.65
2016-01-19T00:48:03.763Z,46.55
2016-01-19T00:49:03.827Z,47.22
2016-01-19T00:50:03.877Z,47.51
2016-01-19T00:51:03.943Z,47.03
2016-01-19T00:52:03.991Z,47.77
2016-01-19T00:53:04.073Z,47.13
2016-01-19T00:54:04.107Z,47.03
2016-01-19T00:55:04.141Z,46.84
2016-01-19T00:56:04.222Z,47.32
2016-01-19T00:57:04.271Z,46.74
2016-01-19T00:58:04.321Z,46.94
2016-01-19T00:59:04.370Z,46.74
2016-01-19T01:00:04.435Z,46.94
2016-01-19T01:01:04.485Z,48.07
2016-01-19T01:02:04.534Z,47.89
2016-01-19T01:03:04.600Z,46.84
2016-01-19T01:04:04.649Z,46.74
2016-01-19T01:05:04.715Z,47.03
2016-01-19T01:06:04.781Z,46.84
2016-01-19T01:07:04.814Z,46.74
2016-01-19T01:08:04.864Z,47.13
2016-01-19T01:09:04.929Z,47.1
2016-01-19T01:10:04.995Z,47.8
2016-01-19T01:11:05.060Z,47.1
2016-01-19T01:12:05.094Z,47.03
2016-01-19T01:13:05.159Z,47.89
2016-01-19T01:14:05.208Z,47.22
2016-01-19T01:15:05.258Z,47.2
2016-01-19T01:16:05.307Z,47.87
2016-01-19T01:17:05.373Z,47.49
2016-01-19T01:18:05.423Z,47.77
2016-01-19T01:19:05.487Z,47.49
2016-01-19T01:20:05.537Z,47.49
2016-01-19T01:21:05.587Z,47.2
2016-01-19T01:22:05.636Z,47.58
2016-01-19T01:23:05.701Z,47.68
2016-01-19T01:24:05.750Z,47.68
2016-01-19T01:25:05.801Z,47.68
2016-01-19T01:26:05.866Z,47.68
2016-01-19T01:27:05.931Z,47.58
2016-01-19T01:28:05.980Z,47.77
2016-01-19T01:29:06.031Z,47.68
2016-01-19T01:30:06.080Z,47.87
2016-01-19T01:31:06.144Z,47.87
2016-01-19T01:32:06.195Z,48.07
2016-01-19T01:33:06.260Z,47.77
2016-01-19T01:34:06.310Z,47.87
2016-01-19T01:35:06.359Z,47.87
2016-01-19T01:36:06.441Z,47.97
2016-01-19T01:37:06.474Z,47.87
2016-01-19T01:38:06.538Z,47.87
2016-01-19T01:39:06.589Z,47.68
2016-01-19T01:40:06.638Z,48.25
2016-01-19T01:41:06.688Z,48.16
2016-01-19T01:42:06.752Z,47.87
2016-01-19T01:43:06.802Z,47.97
2016-01-19T01:44:06.868Z,48.35
2016-01-19T01:45:06.918Z,48.54
2016-01-19T01:46:06.968Z,48.54
2016-01-19T01:47:07.015Z,48.54
2016-01-19T01:48:07.098Z,48.54
2016-01-19T01:49:07.131Z,48.54
2016-01-19T01:50:07.196Z,47.97
2016-01-19T01:51:07.261Z,47.68
2016-01-19T01:52:07.296Z,48.07
2016-01-19T01:53:07.361Z,47.97
2016-01-19T01:54:07.410Z,48.25
2016-01-19T01:55:07.476Z,48.54
2016-01-19T01:56:07.540Z,48.64
2016-01-19T01:57:07.590Z,48.16
2016-01-19T01:58:07.624Z,48.35
2016-01-19T01:59:07.689Z,48.25
2016-01-19T02:00:07.739Z,48.35
2016-01-19T02:01:07.803Z,47.97
2016-01-19T02:02:07.853Z,48.64
2016-01-19T02:03:07.910Z,48.44
2016-01-19T02:04:07.944Z,48.25
2016-01-19T02:05:08.040Z,48.54
2016-01-19T02:06:08.074Z,48.54
2016-01-19T02:07:08.123Z,48.16
2016-01-19T02:08:08.173Z,48.25
2016-01-19T02:09:08.239Z,48.44
2016-01-19T02:10:08.288Z,48.16
2016-01-19T02:11:08.338Z,48.16
2016-01-19T02:12:08.403Z,48.25
2016-01-19T02:13:08.445Z,48.93
2016-01-19T02:14:08.540Z,48.93
2016-01-19T02:15:08.560Z,48.93
2016-01-19T02:16:08.759Z,48.83
2016-01-19T02:17:08.833Z,48.93
2016-01-19T02:18:08.725Z,48.35
2016-01-19T02:19:08.764Z,48.16
2016-01-19T02:20:08.829Z,48.74
2016-01-19T02:21:08.879Z,48.64
2016-01-19T02:22:08.929Z,48.35
2016-01-19T02:23:08.994Z,48.64
2016-01-19T02:24:08.904Z,48.74
2016-01-19T02:25:09.109Z,48.74
2016-01-19T02:26:09.162Z,48.74
2016-01-19T02:27:09.211Z,48.74
2016-01-19T02:28:09.276Z,48.71
2016-01-19T02:29:09.326Z,48.54
2016-01-19T02:30:09.376Z,48.74
2016-01-19T02:31:09.285Z,48.74
2016-01-19T02:32:09.490Z,48.54
2016-01-19T02:33:09.540Z,48.74
2016-01-19T02:34:09.620Z,48.74
2016-01-19T02:35:09.655Z,48.74
2016-01-19T02:36:09.704Z,48.64
2016-01-19T02:37:09.784Z,48.74
2016-01-19T02:38:09.819Z,48.54
2016-01-19T02:39:09.868Z,48.64
2016-01-19T02:40:09.950Z,48.74
2016-01-19T02:41:09.983Z,48.54
2016-01-19T02:42:10.034Z,48.71
2016-01-19T02:43:10.098Z,48.74
2016-01-19T02:44:10.164Z,48.64
2016-01-19T02:45:10.197Z,48.61
2016-01-19T02:46:10.261Z,49.02
2016-01-19T02:47:10.312Z,48.8
2016-01-19T02:48:10.377Z,48.52
2016-01-19T02:49:10.927Z,48.52
2016-01-19T02:50:10.507Z,48.52
2016-01-19T02:51:10.542Z,48.61
2016-01-19T02:52:10.591Z,49
2016-01-19T02:53:10.641Z,49
2016-01-19T02:54:10.691Z,48.71
2016-01-19T02:55:10.769Z,49
2016-01-19T02:56:10.788Z,49.29
2016-01-19T02:57:10.822Z,49.38
2016-01-19T02:58:10.871Z,49.1
2016-01-19T02:59:10.906Z,49.31
2016-01-19T03:00:10.942Z,49
2016-01-19T03:01:11.017Z,49.19
2016-01-19T03:02:11.046Z,49.38
2016-01-19T03:03:11.094Z,49.48
2016-01-19T03:04:11.158Z,49.1
2016-01-19T03:05:11.187Z,49.29
2016-01-19T03:06:11.235Z,49.38
2016-01-19T03:07:11.297Z,49.1
2016-01-19T03:08:11.345Z,49
2016-01-19T03:09:11.424Z,49.1
2016-01-19T03:10:11.457Z,49
2016-01-19T03:11:11.505Z,49.38
2016-01-19T03:12:11.570Z,49.1
2016-01-19T03:13:11.619Z,49.1
2016-01-19T03:14:11.668Z,49.19
2016-01-19T03:15:11.748Z,49.29
2016-01-19T03:16:11.782Z,49
2016-01-19T03:17:11.847Z,49
2016-01-19T03:18:11.912Z,49.1
2016-01-19T03:19:11.945Z,49
2016-01-19T03:20:12.012Z,49.19
2016-01-19T03:21:12.061Z,49.19
2016-01-19T03:22:12.111Z,49.19
2016-01-19T03:23:12.159Z,49.38
2016-01-19T03:24:12.225Z,49.38
2016-01-19T03:25:12.275Z,49.38
2016-01-19T03:26:12.325Z,49.29
2016-01-19T03:27:12.389Z,49.1
2016-01-19T03:28:12.439Z,49.48
2016-01-19T03:29:12.505Z,49.29
2016-01-19T03:30:12.553Z,49.29
2016-01-19T03:31:12.603Z,49.38
2016-01-19T03:32:12.653Z,49.29
2016-01-19T03:33:12.765Z,49.57
2016-01-19T03:34:12.768Z,49.38
2016-01-19T03:35:12.817Z,49.29
2016-01-19T03:36:12.867Z,49.38
2016-01-19T03:37:12.916Z,49.38
2016-01-19T03:38:12.982Z,49.48
2016-01-19T03:39:13.046Z,49.48
2016-01-19T03:40:13.097Z,49.19
2016-01-19T03:41:13.146Z,49.57
2016-01-19T03:42:13.210Z,49.57
2016-01-19T03:43:13.277Z,49.38
2016-01-19T03:44:13.309Z,49.57
2016-01-19T03:45:13.376Z,49.38
2016-01-19T03:46:13.410Z,49.48
2016-01-19T03:47:13.474Z,49.48
2016-01-19T03:48:13.523Z,49.48
2016-01-19T03:49:13.573Z,49.67
2016-01-19T03:50:13.639Z,49.86
2016-01-19T03:51:14.110Z,49.96
2016-01-19T03:52:13.751Z,49.86
2016-01-19T03:53:13.800Z,49.67
2016-01-19T03:54:13.850Z,50.24
2016-01-19T03:55:13.915Z,49.86
2016-01-19T03:56:13.981Z,49.76
2016-01-19T03:57:14.014Z,49.67
2016-01-19T03:58:14.080Z,49.96
2016-01-19T03:59:14.144Z,49.67
2016-01-19T04:00:14.179Z,49.76
2016-01-19T04:01:14.244Z,49.86
2016-01-19T04:02:14.294Z,49.96
2016-01-19T04:03:14.343Z,49.76
2016-01-19T04:04:14.392Z,50.05
2016-01-19T04:05:14.458Z,49.96
2016-01-19T04:06:14.507Z,49.96
2016-01-19T04:07:14.558Z,49.86
2016-01-19T04:08:14.607Z,49.76
2016-01-19T04:09:14.672Z,49.96
2016-01-19T04:10:14.752Z,49.76
2016-01-19T04:11:14.802Z,50.05
2016-01-19T04:12:14.836Z,50.34
2016-01-19T04:13:14.885Z,49.76
2016-01-19T04:14:14.951Z,49.86
2016-01-19T04:15:14.985Z,49.96
2016-01-19T04:16:15.049Z,49.67
2016-01-19T04:17:15.115Z,50.15
2016-01-19T04:18:15.180Z,50.05
2016-01-19T04:19:15.215Z,50.05
2016-01-19T04:20:15.265Z,49.84
2016-01-19T04:21:15.344Z,49.96
2016-01-19T04:22:15.378Z,49.86
2016-01-19T04:23:15.428Z,49.76
2016-01-19T04:24:15.509Z,50.15
2016-01-19T04:25:15.542Z,50.6
2016-01-19T04:26:15.592Z,49.93
2016-01-19T04:27:15.658Z,50.12
2016-01-19T04:28:15.707Z,50.15
2016-01-19T04:29:15.772Z,50.05
2016-01-19T04:30:15.806Z,50.73
2016-01-19T04:31:15.872Z,49.86
2016-01-19T04:32:15.936Z,50.05
2016-01-19T04:33:15.970Z,50.15
2016-01-19T04:34:16.052Z,50.05
2016-01-19T04:35:16.086Z,50.34
2016-01-19T04:36:16.136Z,50.05
2016-01-19T04:37:16.185Z,49.57
2016-01-19T04:38:16.266Z,49.96
2016-01-19T04:39:16.299Z,49.84
2016-01-19T04:40:16.364Z,49.84
2016-01-19T04:41:16.399Z,50.43
2016-01-19T04:42:16.480Z,50.43
2016-01-19T04:43:16.513Z,50.24
2016-01-19T04:44:16.578Z,50.34
2016-01-19T04:45:16.644Z,50.34
2016-01-19T04:46:16.677Z,50.22
2016-01-19T04:47:16.727Z,50.41
2016-01-19T04:48:16.807Z,50.32
2016-01-19T04:49:16.843Z,50.22
2016-01-19T04:50:16.907Z,50.12
2016-01-19T04:51:16.957Z,50.41
2016-01-19T04:52:17.006Z,50.12
2016-01-19T04:53:17.071Z,50.32
2016-01-19T04:54:17.121Z,50.22
2016-01-19T04:55:17.170Z,50.32
2016-01-19T04:56:17.220Z,50.22
2016-01-19T04:57:17.284Z,50.32
2016-01-19T04:58:17.335Z,50.41
2016-01-19T04:59:17.384Z,50.41
2016-01-19T05:00:17.450Z,50.41
2016-01-19T05:01:17.500Z,50.12
2016-01-19T05:02:17.564Z,50.41
2016-01-19T05:03:17.614Z,50.51
2016-01-19T05:04:17.648Z,50.12
2016-01-19T05:05:17.713Z,50.7
2016-01-19T05:06:17.763Z,50.7
2016-01-19T05:07:17.828Z,50.6
2016-01-19T05:08:17.893Z,50.51
2016-01-19T05:09:17.927Z,50.7
2016-01-19T05:10:18.008Z,50.7
2016-01-19T05:11:18.026Z,50.7
2016-01-19T05:12:18.091Z,50.6
2016-01-19T05:13:18.156Z,50.6
2016-01-19T05:14:18.205Z,50.6
2016-01-19T05:15:18.255Z,50.12
2016-01-19T05:16:18.305Z,50.6
2016-01-19T05:17:18.667Z,50.51
2016-01-19T05:18:18.435Z,49.93
2016-01-19T05:19:18.485Z,50.51
2016-01-19T05:20:18.551Z,50.99
2016-01-19T05:21:18.585Z,51.08
2016-01-19T05:22:18.634Z,50.32
2016-01-19T05:23:18.699Z,50.12
2016-01-19T05:24:18.764Z,50.6
2016-01-19T05:25:18.799Z,50.51
2016-01-19T05:26:18.862Z,50.51
2016-01-19T05:27:18.929Z,50.79
2016-01-19T05:28:18.963Z,50.79
2016-01-19T05:29:19.028Z,50.6
2016-01-19T05:30:19.093Z,51.08
2016-01-19T05:31:19.126Z,50.7
2016-01-19T05:32:19.176Z,50.7
2016-01-19T05:33:19.225Z,50.7
2016-01-19T05:34:19.292Z,50.51
2016-01-19T05:35:19.356Z,50.32
2016-01-19T05:36:19.406Z,50.51
2016-01-19T05:37:19.456Z,50.99
2016-01-19T05:38:19.506Z,50.51
2016-01-19T05:39:19.555Z,50.99
2016-01-19T05:40:19.620Z,50.41
2016-01-19T05:41:19.685Z,50.99
2016-01-19T05:42:19.719Z,50.6
2016-01-19T05:43:19.769Z,50.41
2016-01-19T05:44:19.819Z,50.51
2016-01-19T05:45:19.883Z,50.6
2016-01-19T05:46:19.949Z,50.22
2016-01-19T05:47:19.999Z,50.79
2016-01-19T05:48:20.079Z,50.79
2016-01-19T05:49:20.096Z,50.51
2016-01-19T05:50:20.163Z,50.41
2016-01-19T05:51:20.244Z,50.32
2016-01-19T05:52:20.262Z,50.41
2016-01-19T05:53:20.311Z,50.79
2016-01-19T05:54:20.642Z,50.7
2016-01-19T05:55:20.426Z,50.41
2016-01-19T05:56:20.491Z,50.6
2016-01-19T05:57:20.525Z,51.08
2016-01-19T05:58:20.950Z,50.6
2016-01-19T05:59:22.296Z,50.89
2016-01-19T06:00:21.299Z,50.99
2016-01-19T06:01:21.848Z,50.89
2016-01-19T06:02:22.335Z,50.99
2016-01-19T06:03:21.948Z,50.99
2016-01-19T06:04:22.857Z,50.99
2016-01-19T06:05:21.703Z,50.79
2016-01-19T06:06:21.175Z,50.99
2016-01-19T06:07:21.083Z,50.79
2016-01-19T06:08:21.133Z,50.79
2016-01-19T06:09:21.183Z,51.08
2016-01-19T06:10:21.232Z,50.99
2016-01-19T06:11:21.344Z,50.67
2016-01-19T06:12:21.347Z,50.99
2016-01-19T06:13:21.397Z,50.77
2016-01-19T06:14:21.447Z,50.58
2016-01-19T06:15:21.542Z,50.96
2016-01-19T06:16:22.545Z,49.36
2016-01-19T06:17:23.000Z,48.09
2016-01-19T06:18:23.378Z,46.58
2016-01-19T06:19:21.725Z,45.12
2016-01-19T06:20:21.791Z,45.79
2016-01-19T06:21:21.825Z,47.13
2016-01-19T06:22:21.889Z,46.84
2016-01-19T06:23:23.064Z,46.55
2016-01-19T06:24:22.973Z,47.22
2016-01-19T06:25:22.882Z,46.94
2016-01-19T06:26:23.010Z,46.84
2016-01-19T06:27:22.809Z,47.89
2016-01-19T06:28:23.062Z,48.28
2016-01-19T06:29:23.737Z,48.75
2016-01-19T06:30:23.005Z,48.85
2016-01-19T06:31:22.836Z,48.75
2016-01-19T06:32:24.041Z,48.66
2016-01-19T06:33:23.669Z,48.18
2016-01-19T06:34:22.532Z,48.18
2016-01-19T06:35:22.581Z,47.42
2016-01-19T06:36:22.630Z,47.13
2016-01-19T06:37:22.695Z,47.22
2016-01-19T06:38:22.745Z,47.32
2016-01-19T06:39:22.795Z,47.13
2016-01-19T06:40:22.859Z,47.32
2016-01-19T06:41:22.909Z,47.32
2016-01-19T06:42:22.975Z,47.61
2016-01-19T06:43:23.025Z,47.89
2016-01-19T06:44:23.073Z,47.42
2016-01-19T06:45:23.122Z,47.71
2016-01-19T06:46:23.188Z,47.89
2016-01-19T06:47:23.238Z,47.89
2016-01-19T06:48:23.288Z,47.8
2016-01-19T06:49:23.337Z,48.66
2016-01-19T06:50:23.386Z,49.24
2016-01-19T06:51:23.452Z,48.57
2016-01-19T06:52:23.517Z,47.61
2016-01-19T06:53:23.552Z,47.22
2016-01-19T06:54:23.600Z,46.94
2016-01-19T06:55:23.665Z,47.13
2016-01-19T06:56:23.715Z,46.94
2016-01-19T06:57:23.765Z,47.32
2016-01-19T06:58:23.830Z,47.51
2016-01-19T06:59:23.879Z,47.22
2016-01-19T07:00:23.930Z,47.8
2016-01-19T07:01:23.994Z,47.42
2016-01-19T07:02:24.059Z,47.61
2016-01-19T07:03:24.094Z,47.89
2016-01-19T07:04:24.159Z,47.89
2016-01-19T07:05:24.209Z,47.89
2016-01-19T07:06:24.257Z,47.8
2016-01-19T07:07:24.307Z,47.99
2016-01-19T07:08:24.373Z,47.71
2016-01-19T07:09:24.423Z,48.09
2016-01-19T07:10:24.473Z,48.38
2016-01-19T07:11:24.537Z,47.8
2016-01-19T07:12:24.570Z,48.18
2016-01-19T07:13:24.636Z,48.47
2016-01-19T07:14:24.686Z,48.47
2016-01-19T07:15:24.735Z,48.28
2016-01-19T07:16:24.800Z,48.09
2016-01-19T07:17:24.850Z,48.09
2016-01-19T07:18:24.915Z,48.18
2016-01-19T07:19:24.964Z,48.28
2016-01-19T07:20:25.014Z,48.28
2016-01-19T07:21:25.063Z,48.18
2016-01-19T07:22:25.113Z,48.18
2016-01-19T07:23:25.178Z,48.28
2016-01-19T07:24:25.228Z,48.38
2016-01-19T07:25:25.277Z,48.38
2016-01-19T07:26:25.327Z,48.28
2016-01-19T07:27:25.393Z,45.89
2016-01-19T07:28:25.442Z,43.1
2016-01-19T07:29:25.507Z,39.73
2016-01-19T07:30:25.572Z,36.19
2016-01-19T07:31:25.606Z,35.52
2016-01-19T07:32:25.702Z,35.42
2016-01-19T07:33:25.705Z,35.42
2016-01-19T07:34:25.755Z,36.27
2016-01-19T07:35:25.821Z,35.12
2016-01-19T07:36:25.885Z,35.5
2016-01-19T07:37:25.935Z,39.14
2016-01-19T07:38:25.985Z,41.44
2016-01-19T07:39:26.034Z,41.82
2016-01-19T07:40:26.240Z,42.4
2016-01-19T07:41:26.367Z,43.26
2016-01-19T07:42:26.229Z,43.54
2016-01-19T07:43:26.248Z,43.63
2016-01-19T07:44:26.298Z,44.12
2016-01-19T07:45:26.363Z,44.12
2016-01-19T07:46:26.412Z,44.4
2016-01-19T07:47:26.462Z,44.43
2016-01-19T07:48:26.527Z,44.43
2016-01-19T07:49:26.561Z,44.52
2016-01-19T07:50:26.625Z,44.43
2016-01-19T07:51:26.691Z,44.71
2016-01-19T07:52:26.725Z,44.62
2016-01-19T07:53:26.869Z,44.9
2016-01-19T07:54:26.840Z,45
2016-01-19T07:55:26.889Z,45
2016-01-19T07:56:26.970Z,45.09
2016-01-19T07:57:27.005Z,45.19
2016-01-19T07:58:27.069Z,44.9
2016-01-19T07:59:27.104Z,45.19
2016-01-19T08:00:27.152Z,45
2016-01-19T08:01:27.218Z,45.09
2016-01-19T08:02:27.268Z,45.09
2016-01-19T08:03:27.333Z,45.48
2016-01-19T08:04:27.398Z,45.09
2016-01-19T08:05:27.432Z,45.09
2016-01-19T08:06:27.481Z,45.29
2016-01-19T08:07:27.531Z,45.38
2016-01-19T08:08:27.596Z,45.09
2016-01-19T08:09:27.646Z,45.38
2016-01-19T08:10:27.695Z,45
2016-01-19T08:11:27.776Z,45.29
2016-01-19T08:12:27.810Z,45.09
2016-01-19T08:13:27.937Z,45.09
2016-01-19T08:14:27.973Z,45.19
2016-01-19T08:15:27.990Z,45.29
2016-01-19T08:16:28.039Z,45.29
2016-01-19T08:17:28.073Z,45
2016-01-19T08:18:28.139Z,45.29
2016-01-19T08:19:28.189Z,45
2016-01-19T08:20:28.239Z,45.29
2016-01-19T08:21:28.303Z,45.38
2016-01-19T08:22:28.337Z,45.09
2016-01-19T08:23:28.402Z,45.19
2016-01-19T08:24:28.484Z,45.29
2016-01-19T08:25:28.502Z,45.09
2016-01-19T08:26:28.566Z,45.57
2016-01-19T08:27:28.616Z,45.19
2016-01-19T08:28:28.916Z,45.19
2016-01-19T08:29:28.716Z,45.09
2016-01-19T08:30:28.765Z,45.09
2016-01-19T08:31:28.830Z,45.29
2016-01-19T08:32:28.896Z,45.48
2016-01-19T08:33:29.273Z,45
2016-01-19T08:34:28.979Z,45.86
2016-01-19T08:35:29.043Z,45.29
2016-01-19T08:36:29.093Z,46.05
2016-01-19T08:37:29.159Z,45.29
2016-01-19T08:38:29.209Z,45.86
2016-01-19T08:39:29.258Z,45.19
2016-01-19T08:40:29.307Z,46.05
2016-01-19T08:41:29.373Z,45.57
2016-01-19T08:42:29.937Z,45.67
2016-01-19T08:43:29.456Z,45.67
2016-01-19T08:44:29.521Z,45.67
2016-01-19T08:45:29.962Z,46.25
2016-01-19T08:46:29.620Z,45.96
2016-01-19T08:47:29.686Z,45.67
2016-01-19T08:48:29.736Z,46.15
2016-01-19T08:49:29.879Z,46.15
2016-01-19T08:50:30.084Z,45.86
2016-01-19T08:51:30.072Z,45.96
2016-01-19T08:52:30.042Z,46.44
2016-01-19T08:53:29.999Z,45.96
2016-01-19T08:54:30.064Z,45.76
2016-01-19T08:55:30.270Z,46.05
2016-01-19T08:56:30.164Z,46.25
2016-01-19T08:57:30.369Z,45.57
2016-01-19T08:58:30.278Z,46.15
2016-01-19T08:59:30.406Z,45.86
2016-01-19T09:00:30.377Z,45.96
2016-01-19T09:01:30.692Z,46.05
2016-01-19T09:02:30.664Z,45.67
2016-01-19T09:03:30.542Z,45.76
2016-01-19T09:04:30.685Z,45.96
2016-01-19T09:05:30.640Z,45.96
2016-01-19T09:06:30.846Z,45.86
2016-01-19T09:07:30.755Z,45.96
2016-01-19T09:08:30.804Z,46.05
2016-01-19T09:09:30.870Z,45.29
2016-01-19T09:10:30.904Z,45.48
2016-01-19T09:11:30.968Z,46.25
2016-01-19T09:12:31.019Z,46.05
2016-01-19T09:13:31.068Z,46.15
2016-01-19T09:14:31.134Z,45.96
2016-01-19T09:15:31.183Z,45.86
2016-01-19T09:16:31.232Z,45.96
2016-01-19T09:17:31.750Z,45.89
2016-01-19T09:18:31.331Z,46.44
2016-01-19T09:19:31.475Z,45.89
2016-01-19T09:20:31.447Z,46.36
2016-01-19T09:21:31.496Z,45.98
2016-01-19T09:22:31.545Z,45.89
2016-01-19T09:23:31.611Z,45.79
2016-01-19T09:24:31.660Z,45.89
2016-01-19T09:25:31.945Z,46.36
2016-01-19T09:26:31.775Z,45.79
2016-01-19T09:27:31.825Z,47.03
2016-01-19T09:28:31.889Z,46.26
2016-01-19T09:29:31.924Z,47.51
2016-01-19T09:30:31.988Z,48.28
2016-01-19T09:31:32.038Z,48.38
2016-01-19T09:32:32.197Z,47.42
2016-01-19T09:33:32.138Z,47.22
2016-01-19T09:34:32.203Z,46.58
2016-01-19T09:35:32.252Z,46.36
2016-01-19T09:36:32.302Z,45.14
2016-01-19T09:37:32.368Z,43.87
2016-01-19T09:38:32.417Z,43.49
2016-01-19T09:39:32.482Z,43.99
2016-01-19T09:40:32.516Z,44.26
2016-01-19T09:41:32.582Z,45.04
2016-01-19T09:42:32.632Z,45.04
